createdAt,value
2022-11-12T00:00:17.333Z,12.30
2022-11-12T00:03:03.828Z,18.90
2022-11-12T00:05:51.425Z,11.70
2022-11-12T00:08:37.368Z,11.18
2022-11-12T00:11:23.273Z,12.35
2022-11-12T00:14:09.089Z,11.00
2022-11-12T00:16:54.841Z,13.77
2022-11-12T00:19:40.660Z,12.63
2022-11-12T00:22:28.067Z,10.57
2022-11-12T00:25:13.905Z,11.25
2022-11-12T00:28:03.572Z,11.27
2022-11-12T00:30:49.326Z,11.35
2022-11-12T00:33:35.158Z,10.60
2022-11-12T00:36:20.969Z,12.48
2022-11-12T00:39:08.167Z,14.98
2022-11-12T00:41:54.131Z,15.70
2022-11-12T00:44:40.184Z,12.85
2022-11-12T00:47:26.124Z,12.20
2022-11-12T00:50:12.115Z,11.68
2022-11-12T00:52:57.715Z,10.18
2022-11-12T00:55:44.771Z,10.77
2022-11-12T00:58:30.831Z,11.27
2022-11-12T01:01:17.474Z,11.27
2022-11-12T01:04:03.641Z,11.48
2022-11-12T01:06:49.396Z,14.23
2022-11-12T01:09:35.304Z,12.07
2022-11-12T01:12:22.428Z,10.75
2022-11-12T01:15:09.260Z,8.97
2022-11-12T01:17:54.779Z,11.02
2022-11-12T01:20:40.591Z,9.00
2022-11-12T01:23:26.556Z,11.57
2022-11-12T01:26:14.591Z,10.93
2022-11-12T01:29:02.089Z,10.23
2022-11-12T01:31:47.957Z,10.07
2022-11-12T01:34:33.970Z,11.80
2022-11-12T01:37:19.812Z,10.48
2022-11-12T01:40:07.069Z,13.07
2022-11-12T01:42:53.683Z,12.00
2022-11-12T01:45:46.216Z,11.02
2022-11-12T01:48:37.273Z,11.68
2022-11-12T01:51:25.582Z,11.48
2022-11-12T01:54:14.951Z,11.38
2022-11-12T01:57:01.637Z,10.43
2022-11-12T01:59:49.327Z,14.13
2022-11-12T02:02:37.216Z,8.75
2022-11-12T02:05:25.114Z,9.48
2022-11-12T02:08:12.887Z,13.30
2022-11-12T02:10:58.812Z,12.00
2022-11-12T02:13:58.745Z,11.75
2022-11-12T02:16:46.366Z,10.05
2022-11-12T02:19:37.182Z,10.15
2022-11-12T02:22:24.055Z,11.32
2022-11-12T02:25:12.405Z,8.00
2022-11-12T02:27:59.557Z,8.88
2022-11-12T02:30:47.307Z,10.32
2022-11-12T02:33:33.090Z,8.88
2022-11-12T02:36:19.198Z,9.52
2022-11-12T02:39:06.443Z,9.43
2022-11-12T02:41:51.950Z,10.27
2022-11-12T02:44:37.995Z,8.93
2022-11-12T02:47:23.791Z,9.63
2022-11-12T02:50:10.363Z,9.10
2022-11-12T02:52:55.887Z,9.93
2022-11-12T02:55:43.965Z,14.10
2022-11-12T02:58:30.167Z,9.23
2022-11-12T03:01:15.810Z,7.93
2022-11-12T03:04:01.499Z,9.23
2022-11-12T03:06:47.419Z,8.90
2022-11-12T03:09:33.340Z,8.63
2022-11-12T03:12:20.448Z,7.43
2022-11-12T03:15:06.924Z,10.48
2022-11-12T03:17:52.534Z,7.60
2022-11-12T03:20:38.460Z,7.17
2022-11-12T03:23:25.808Z,10.18
2022-11-12T03:26:11.262Z,7.72
2022-11-12T03:28:58.441Z,8.38
2022-11-12T03:31:44.228Z,7.75
2022-11-12T03:34:29.912Z,9.37
2022-11-12T03:37:15.796Z,8.57
2022-11-12T03:40:01.443Z,8.02
2022-11-12T03:42:48.318Z,8.20
2022-11-12T03:45:35.285Z,9.88
2022-11-12T03:48:21.075Z,10.67
2022-11-12T03:51:07.087Z,11.15
2022-11-12T03:53:52.841Z,10.43
2022-11-12T03:56:38.859Z,9.90
2022-11-12T03:59:24.308Z,9.65
2022-11-12T04:02:14.505Z,10.00
2022-11-12T04:05:18.468Z,13.38
2022-11-12T04:08:25.075Z,9.57
2022-11-12T04:11:13.782Z,12.32
2022-11-12T04:14:00.019Z,10.32
2022-11-12T04:17:04.384Z,8.40
2022-11-12T04:20:10.051Z,9.85
2022-11-12T04:22:55.930Z,8.30
2022-11-12T04:26:00.368Z,11.38
2022-11-12T04:29:04.762Z,11.75
2022-11-12T04:31:50.520Z,11.40
2022-11-12T04:34:36.528Z,10.68
2022-11-12T04:37:25.104Z,9.38
2022-11-12T04:40:30.680Z,10.23
2022-11-12T04:43:35.984Z,9.95
2022-11-12T04:46:21.768Z,9.33
2022-11-12T04:49:07.810Z,10.50
2022-11-12T04:52:05.438Z,8.85
2022-11-12T04:54:52.994Z,11.45
2022-11-12T04:57:39.325Z,11.98
2022-11-12T05:00:24.968Z,8.23
2022-11-12T05:03:10.920Z,8.20
2022-11-12T05:06:01.125Z,9.73
2022-11-12T05:08:46.671Z,9.20
2022-11-12T05:11:33.793Z,9.00
2022-11-12T05:14:19.679Z,9.20
2022-11-12T05:17:05.917Z,7.72
2022-11-12T05:19:51.590Z,10.35
2022-11-12T05:22:45.747Z,9.20
2022-11-12T05:25:36.964Z,8.65
2022-11-12T05:28:24.048Z,12.43
2022-11-12T05:31:10.034Z,9.65
2022-11-12T05:33:56.351Z,12.43
2022-11-12T05:36:41.950Z,13.80
2022-11-12T05:39:27.880Z,12.10
2022-11-12T05:42:14.506Z,11.37
2022-11-12T05:45:01.413Z,10.00
2022-11-12T05:47:48.238Z,13.13
2022-11-12T05:50:45.447Z,11.05
2022-11-12T05:53:40.638Z,13.10
2022-11-12T05:56:26.227Z,9.87
2022-11-12T05:59:13.757Z,7.68
2022-11-12T06:02:01.004Z,10.80
2022-11-12T06:04:46.646Z,9.77
2022-11-12T06:07:32.582Z,10.77
2022-11-12T06:10:20.686Z,11.33
2022-11-12T06:13:06.605Z,8.10
2022-11-12T06:15:53.636Z,10.43
2022-11-12T06:18:40.519Z,9.95
2022-11-12T06:21:27.749Z,9.68
2022-11-12T06:24:13.897Z,8.10
2022-11-12T06:26:59.822Z,9.80
2022-11-12T06:29:45.574Z,9.40
2022-11-12T06:32:31.456Z,11.93
2022-11-12T06:35:19.580Z,9.50
2022-11-12T06:38:05.247Z,9.50
2022-11-12T06:40:51.068Z,9.60
2022-11-12T06:43:37.333Z,12.30
2022-11-12T06:46:23.036Z,12.85
2022-11-12T06:49:09.005Z,11.15
2022-11-12T06:51:55.965Z,10.57
2022-11-12T06:54:41.922Z,10.20
2022-11-12T06:57:27.817Z,12.25
2022-11-12T07:00:14.742Z,11.57
2022-11-12T07:03:05.189Z,11.40
2022-11-12T07:05:50.905Z,12.10
2022-11-12T07:08:39.162Z,14.60
2022-11-12T07:11:24.789Z,12.45
2022-11-12T07:14:10.699Z,9.40
2022-11-12T07:16:56.475Z,10.45
2022-11-12T07:19:42.382Z,9.90
2022-11-12T07:22:28.227Z,9.38
2022-11-12T07:25:15.329Z,11.30
2022-11-12T07:28:01.253Z,12.40
2022-11-12T07:30:47.122Z,12.25
2022-11-12T07:33:33.496Z,11.20
2022-11-12T07:36:21.033Z,11.60
2022-11-12T07:39:06.878Z,11.88
2022-11-12T07:41:53.929Z,12.40
2022-11-12T07:44:42.581Z,11.85
2022-11-12T07:47:28.668Z,12.10
2022-11-12T07:50:14.842Z,14.10
2022-11-12T07:53:00.887Z,14.68
2022-11-12T07:55:53.674Z,13.50
2022-11-12T07:58:41.205Z,12.40
2022-11-12T08:01:30.692Z,15.57
2022-11-12T08:04:16.905Z,12.40
2022-11-12T08:07:02.632Z,11.85
2022-11-12T08:09:48.339Z,12.43
2022-11-12T08:12:34.275Z,10.43
2022-11-12T08:15:21.644Z,11.73
2022-11-12T08:18:07.420Z,12.32
2022-11-12T08:20:58.844Z,13.05
2022-11-12T08:23:44.637Z,13.82
2022-11-12T08:26:30.446Z,13.82
2022-11-12T08:29:16.335Z,13.53
2022-11-12T08:32:03.545Z,12.32
2022-11-12T08:34:49.250Z,13.52
2022-11-12T08:37:35.094Z,20.55
2022-11-12T08:40:21.197Z,18.05
2022-11-12T08:43:09.766Z,16.30
2022-11-12T08:45:57.390Z,17.98
2022-11-12T08:48:44.510Z,17.88
2022-11-12T08:51:30.374Z,14.35
2022-11-12T08:54:16.249Z,16.00
2022-11-12T08:57:02.214Z,13.83
2022-11-12T08:59:47.949Z,14.10
2022-11-12T09:02:33.865Z,12.48
2022-11-12T09:05:21.065Z,13.77
2022-11-12T09:08:08.834Z,15.52
2022-11-12T09:10:54.323Z,13.67
2022-11-12T09:13:40.071Z,13.02
2022-11-12T09:16:25.933Z,13.05
2022-11-12T09:19:11.816Z,13.75
2022-11-12T09:21:58.980Z,13.35
2022-11-12T09:24:44.825Z,14.03
2022-11-12T09:27:30.696Z,13.57
2022-11-12T09:30:16.730Z,14.32
2022-11-12T09:33:02.581Z,16.83
2022-11-12T09:35:49.035Z,13.68
2022-11-12T09:38:35.838Z,14.57
2022-11-12T09:41:28.259Z,16.50
2022-11-12T09:44:17.814Z,17.45
2022-11-12T09:47:09.664Z,15.60
2022-11-12T09:50:02.139Z,15.82
2022-11-12T09:52:51.285Z,16.23
2022-11-12T09:55:41.932Z,16.88
2022-11-12T09:58:27.860Z,16.27
2022-11-12T10:01:17.216Z,15.23
2022-11-12T10:04:18.133Z,17.50
2022-11-12T10:07:12.450Z,18.17
2022-11-12T10:10:05.401Z,16.25
2022-11-12T10:13:06.671Z,17.63
2022-11-12T10:16:26.486Z,16.33
2022-11-12T10:19:35.368Z,15.65
2022-11-12T10:22:32.103Z,13.67
2022-11-12T10:25:19.757Z,14.70
2022-11-12T10:28:19.805Z,16.73
2022-11-12T10:31:11.944Z,14.68
2022-11-12T10:34:13.652Z,15.30
2022-11-12T10:37:02.580Z,13.03
2022-11-12T10:39:48.756Z,15.07
2022-11-12T10:42:34.355Z,15.30
2022-11-12T10:45:23.660Z,15.63
2022-11-12T10:48:27.058Z,16.60
2022-11-12T10:51:23.616Z,15.33
2022-11-12T10:54:26.824Z,17.63
2022-11-12T10:57:21.141Z,14.40
2022-11-12T11:00:19.252Z,15.55
2022-11-12T11:03:16.968Z,14.40
2022-11-12T11:06:05.412Z,13.60
2022-11-12T11:08:52.886Z,16.25
2022-11-12T11:11:49.535Z,14.55
2022-11-12T11:14:35.549Z,16.63
2022-11-12T11:17:21.537Z,13.48
2022-11-12T11:20:18.748Z,15.80
2022-11-12T11:23:14.620Z,12.98
2022-11-12T11:26:15.214Z,13.10
2022-11-12T11:29:19.068Z,12.57
2022-11-12T11:32:14.512Z,13.35
2022-11-12T11:35:11.700Z,14.93
2022-11-12T11:38:15.855Z,14.45
2022-11-12T11:41:16.542Z,16.35
2022-11-12T11:44:14.077Z,11.98
2022-11-12T11:47:09.488Z,15.30
2022-11-12T11:50:11.123Z,14.50
2022-11-12T11:53:12.921Z,14.18
2022-11-12T11:56:02.748Z,14.10
2022-11-12T11:59:05.119Z,14.25
2022-11-12T12:02:06.817Z,13.85
2022-11-12T12:05:02.398Z,11.67
2022-11-12T12:07:54.891Z,14.27
2022-11-12T12:11:07.497Z,16.88
2022-11-12T12:14:06.623Z,13.48
2022-11-12T12:17:01.848Z,16.45
2022-11-12T12:20:00.608Z,13.00
2022-11-12T12:22:50.351Z,12.95
2022-11-12T12:25:39.600Z,11.52
2022-11-12T12:28:37.194Z,13.30
2022-11-12T12:31:27.214Z,13.05
2022-11-12T12:34:20.535Z,15.10
2022-11-12T12:37:14.862Z,12.90
2022-11-12T12:40:05.730Z,12.80
2022-11-12T12:42:56.436Z,11.73
2022-11-12T12:45:45.222Z,13.80
2022-11-12T12:48:32.734Z,14.50
2022-11-12T12:51:19.131Z,11.60
2022-11-12T12:54:05.098Z,11.93
2022-11-12T12:56:51.420Z,12.13
2022-11-12T12:59:37.036Z,11.98
2022-11-12T13:02:25.443Z,12.73
2022-11-12T13:05:26.435Z,12.95
2022-11-12T13:08:18.725Z,12.70
2022-11-12T13:11:06.211Z,12.18
2022-11-12T13:13:51.889Z,12.63
2022-11-12T13:17:01.022Z,13.77
2022-11-12T13:20:32.633Z,11.93
2022-11-12T13:24:03.816Z,12.50
2022-11-12T13:26:52.958Z,10.85
2022-11-12T13:29:41.142Z,15.52
2022-11-12T13:32:37.887Z,15.10
2022-11-12T13:35:34.922Z,12.35
2022-11-12T13:38:21.175Z,12.98
2022-11-12T13:41:13.932Z,11.57
2022-11-12T13:44:05.989Z,12.23
2022-11-12T13:46:53.506Z,10.63
2022-11-12T13:49:39.319Z,11.85
2022-11-12T13:52:28.564Z,11.07
2022-11-12T13:55:16.476Z,11.60
2022-11-12T13:58:02.534Z,11.15
2022-11-12T14:00:53.379Z,11.17
2022-11-12T14:03:44.347Z,9.98
2022-11-12T14:06:36.232Z,9.15
2022-11-12T14:09:46.070Z,10.75
2022-11-12T14:12:52.040Z,9.02
2022-11-12T14:15:53.226Z,7.47
2022-11-12T14:18:58.384Z,11.52
2022-11-12T14:21:58.654Z,11.02
2022-11-12T14:24:48.154Z,9.70
2022-11-12T14:27:35.771Z,9.93
2022-11-12T14:30:24.620Z,9.53
2022-11-12T14:33:11.244Z,12.68
2022-11-12T14:36:01.603Z,10.20
2022-11-12T14:38:51.277Z,11.27
2022-11-12T14:41:42.681Z,10.65
2022-11-12T14:44:33.437Z,14.37
2022-11-12T14:47:19.257Z,11.60
2022-11-12T14:50:06.625Z,14.10
2022-11-12T14:52:59.167Z,13.20
2022-11-12T14:55:49.776Z,9.60
2022-11-12T14:58:38.914Z,8.97
2022-11-12T15:04:39.263Z,10.68
2022-11-12T15:07:26.368Z,10.75
2022-11-12T15:10:34.594Z,10.13
2022-11-12T15:13:23.499Z,12.20
2022-11-12T15:16:16.227Z,9.77
2022-11-12T15:19:17.342Z,11.93
2022-11-12T15:22:04.343Z,13.40
2022-11-12T15:24:50.114Z,10.95
2022-11-12T15:27:39.556Z,12.07
2022-11-12T15:30:27.268Z,9.77
2022-11-12T15:33:21.697Z,13.93
2022-11-12T15:36:15.855Z,10.52
2022-11-12T15:39:01.402Z,15.63
2022-11-12T15:41:47.757Z,10.90
2022-11-12T15:44:37.282Z,12.35
2022-11-12T15:47:23.389Z,13.93
2022-11-12T15:50:15.795Z,10.77
2022-11-12T15:53:01.307Z,10.05
2022-11-12T15:55:47.705Z,11.67
2022-11-12T15:58:35.733Z,11.07
2022-11-12T16:01:21.733Z,11.93
2022-11-12T16:04:08.163Z,13.18
2022-11-12T16:06:55.285Z,13.02
2022-11-12T16:09:41.141Z,13.13
2022-11-12T16:12:27.488Z,14.68
2022-11-12T16:15:14.693Z,16.35
2022-11-12T16:18:00.361Z,12.93
2022-11-12T16:20:47.246Z,11.93
2022-11-12T16:23:34.415Z,12.90
2022-11-12T16:26:25.691Z,12.80
2022-11-12T16:29:13.412Z,16.15
2022-11-12T16:31:59.793Z,11.55
2022-11-12T16:34:45.825Z,16.75
2022-11-12T16:37:32.230Z,14.47
2022-11-12T16:40:21.294Z,14.85
2022-11-12T16:43:07.510Z,13.65
2022-11-12T16:45:53.110Z,14.38
2022-11-12T16:48:39.056Z,17.35
2022-11-12T16:51:25.045Z,15.23
2022-11-12T16:54:10.804Z,14.00
2022-11-12T16:56:58.078Z,17.30
2022-11-12T16:59:44.879Z,17.88
2022-11-12T17:02:30.979Z,17.23
2022-11-12T17:05:19.923Z,19.40
2022-11-12T17:08:05.546Z,15.18
2022-11-12T17:10:54.280Z,15.30
2022-11-12T17:13:41.697Z,13.50
2022-11-12T17:16:28.276Z,14.32
2022-11-12T17:19:14.726Z,14.20
2022-11-12T17:22:00.578Z,17.35
2022-11-12T17:24:46.552Z,16.80
2022-11-12T17:27:32.607Z,17.25
2022-11-12T17:30:19.980Z,19.98
2022-11-12T17:33:06.090Z,19.20
2022-11-12T17:35:51.980Z,19.33
2022-11-12T17:38:38.128Z,18.88
2022-11-12T17:41:24.648Z,16.45
2022-11-12T17:44:15.055Z,17.52
2022-11-12T17:47:02.655Z,16.80
2022-11-12T17:49:48.640Z,16.80
2022-11-12T17:52:34.445Z,16.40
2022-11-12T17:55:20.437Z,16.40
2022-11-12T17:58:06.480Z,19.60
2022-11-12T18:00:52.842Z,14.63
2022-11-12T18:03:41.257Z,17.92
2022-11-12T18:06:28.766Z,17.45
2022-11-12T18:09:15.793Z,20.30
2022-11-12T18:12:01.744Z,21.83
2022-11-12T18:14:47.781Z,22.13
2022-11-12T18:17:34.083Z,23.23
2022-11-12T18:20:21.243Z,23.13
2022-11-12T18:23:07.129Z,25.85
2022-11-12T18:25:52.874Z,25.63
2022-11-12T18:28:38.815Z,24.03
2022-11-12T18:31:26.240Z,29.27
2022-11-12T18:34:14.892Z,26.75
2022-11-12T18:37:01.863Z,25.95
2022-11-12T18:39:53.700Z,26.77
2022-11-12T18:42:39.805Z,25.60
2022-11-12T18:45:25.515Z,26.13
2022-11-12T18:48:11.497Z,28.25
2022-11-12T18:50:58.657Z,24.52
2022-11-12T18:53:46.233Z,28.98
2022-11-12T18:56:32.117Z,26.33
2022-11-12T18:59:18.127Z,25.70
2022-11-12T19:02:04.307Z,29.48
2022-11-12T19:04:50.627Z,28.60
2022-11-12T19:07:36.710Z,29.27
2022-11-12T19:10:23.983Z,27.80
2022-11-12T19:13:10.142Z,30.80
2022-11-12T19:16:01.936Z,31.38
2022-11-12T19:18:48.948Z,29.80
2022-11-12T19:21:34.591Z,27.25
2022-11-12T19:24:20.528Z,31.13
2022-11-12T19:27:07.735Z,26.70
2022-11-12T19:29:58.451Z,36.05
2022-11-12T19:32:47.561Z,33.35
2022-11-12T19:35:33.436Z,30.92
2022-11-12T19:38:19.238Z,31.87
2022-11-12T19:41:05.939Z,33.40
2022-11-12T19:43:53.274Z,30.73
2022-11-12T19:46:38.990Z,33.00
2022-11-12T19:49:25.207Z,32.25
2022-11-12T19:52:11.235Z,36.50
2022-11-12T19:54:57.210Z,30.75
2022-11-12T19:57:45.041Z,31.05
2022-11-12T20:00:32.510Z,33.67
2022-11-12T20:03:20.531Z,30.45
2022-11-12T20:06:07.927Z,30.20
2022-11-12T20:08:53.768Z,28.73
2022-11-12T20:11:39.409Z,31.48
2022-11-12T20:14:25.526Z,33.15
2022-11-12T20:17:12.703Z,32.92
2022-11-12T20:19:58.641Z,31.60
2022-11-12T20:22:44.820Z,33.03
2022-11-12T20:25:30.495Z,35.75
2022-11-12T20:28:16.734Z,35.45
2022-11-12T20:31:04.529Z,32.95
2022-11-12T20:33:51.903Z,33.77
2022-11-12T20:36:37.820Z,34.25
2022-11-12T20:39:23.718Z,30.83
2022-11-12T20:42:09.678Z,34.08
2022-11-12T20:44:55.552Z,34.72
2022-11-12T20:47:41.226Z,32.03
2022-11-12T20:50:28.270Z,33.08
2022-11-12T20:53:14.157Z,36.10
2022-11-12T20:56:08.025Z,33.08
2022-11-12T20:58:53.774Z,34.03
2022-11-12T21:01:40.518Z,30.00
2022-11-12T21:04:26.149Z,30.80
2022-11-12T21:07:13.519Z,31.27
2022-11-12T21:09:59.203Z,30.55
2022-11-12T21:12:45.311Z,29.88
2022-11-12T21:15:31.493Z,32.83
2022-11-12T21:18:17.494Z,30.33
2022-11-12T21:21:05.893Z,32.90
2022-11-12T21:23:53.919Z,31.48
2022-11-12T21:26:39.939Z,31.55
2022-11-12T21:29:25.472Z,32.00
2022-11-12T21:32:11.404Z,34.00
2022-11-12T21:34:57.217Z,35.42
2022-11-12T21:37:43.051Z,36.70
2022-11-12T21:40:30.299Z,33.42
2022-11-12T21:43:16.010Z,34.70
2022-11-12T21:46:02.004Z,33.33
2022-11-12T21:48:52.260Z,32.25
2022-11-12T21:51:40.128Z,30.13
2022-11-12T21:54:26.140Z,32.70
2022-11-12T21:57:18.457Z,32.17
2022-11-12T22:00:39.084Z,32.47
2022-11-12T22:03:11.355Z,35.55
2022-11-12T22:05:59.068Z,34.92
2022-11-12T22:08:44.997Z,35.35
2022-11-12T22:11:31.182Z,33.90
2022-11-12T22:14:18.449Z,34.10
2022-11-12T22:17:04.313Z,33.03
2022-11-12T22:19:50.169Z,31.27
2022-11-12T22:22:36.104Z,30.52
2022-11-12T22:25:22.102Z,32.77
2022-11-12T22:28:08.060Z,32.20
2022-11-12T22:30:55.348Z,31.45
2022-11-12T22:33:41.362Z,32.40
2022-11-12T22:36:29.128Z,33.42
2022-11-12T22:39:14.696Z,31.67
2022-11-12T22:42:00.534Z,32.13
2022-11-12T22:44:46.329Z,33.65
2022-11-12T22:47:34.408Z,29.88
2022-11-12T22:50:20.414Z,33.80
2022-11-12T22:53:06.295Z,28.73
2022-11-12T22:55:52.061Z,33.00
2022-11-12T22:58:38.965Z,31.85
2022-11-12T23:01:26.793Z,33.30
2022-11-12T23:04:14.388Z,30.45
2022-11-12T23:07:00.395Z,35.00
2022-11-12T23:09:46.199Z,31.17
2022-11-12T23:12:32.160Z,34.05
2022-11-12T23:15:18.046Z,32.85
2022-11-12T23:18:03.942Z,32.50
2022-11-12T23:20:51.392Z,33.33
2022-11-12T23:23:38.532Z,31.75
2022-11-12T23:26:26.608Z,35.65
2022-11-12T23:29:12.262Z,34.95
2022-11-12T23:31:58.365Z,34.45
2022-11-12T23:34:44.080Z,32.27
2022-11-12T23:37:31.240Z,32.17
2022-11-12T23:40:17.178Z,34.47
2022-11-12T23:43:02.815Z,32.75
2022-11-12T23:45:49.801Z,30.73
2022-11-12T23:48:35.418Z,32.40
2022-11-12T23:51:22.190Z,34.78
2022-11-12T23:54:09.390Z,33.42
2022-11-12T23:56:55.019Z,32.33
2022-11-12T23:59:40.907Z,34.90
